createdAt,value
2019-01-05T00:01:28.686Z,2.27
2019-01-05T00:04:12.025Z,2.40
2019-01-05T00:07:00.374Z,2.17
2019-01-05T00:09:47.085Z,1.70
2019-01-05T00:12:35.413Z,2.27
2019-01-05T00:15:26.637Z,1.23
2019-01-05T00:18:13.765Z,1.27
2019-01-05T00:21:01.667Z,1.30
2019-01-05T00:23:56.179Z,1.30
2019-01-05T00:26:45.470Z,1.17
2019-01-05T00:29:43.007Z,0.97
2019-01-05T00:32:36.680Z,1.30
2019-01-05T00:35:31.749Z,1.23
2019-01-05T00:38:34.970Z,0.90
2019-01-05T00:41:23.341Z,0.90
2019-01-05T00:44:07.401Z,1.07
2019-01-05T00:46:54.394Z,1.60
2019-01-05T00:49:53.508Z,1.30
2019-01-05T00:52:44.768Z,2.17
2019-01-05T00:55:31.986Z,0.60
2019-01-05T00:58:41.437Z,1.80
2019-01-05T01:01:42.236Z,1.47
2019-01-05T01:04:33.569Z,1.30
2019-01-05T01:07:37.205Z,2.30
2019-01-05T01:10:30.190Z,2.37
2019-01-05T01:13:17.286Z,2.83
2019-01-05T01:16:04.602Z,3.67
2019-01-05T01:18:55.657Z,3.50
2019-01-05T01:21:49.795Z,4.63
2019-01-05T01:24:36.896Z,5.20
2019-01-05T01:27:24.070Z,5.27
2019-01-05T01:30:28.300Z,4.57
2019-01-05T01:33:07.775Z,4.00
2019-01-05T01:35:56.369Z,3.50
2019-01-05T01:38:55.063Z,3.67
2019-01-05T01:41:49.680Z,4.67
2019-01-05T01:44:38.210Z,3.13
2019-01-05T01:47:24.054Z,3.07
2019-01-05T01:50:11.263Z,3.23
2019-01-05T01:53:17.329Z,2.67
2019-01-05T01:56:14.582Z,3.10
2019-01-05T01:59:03.268Z,3.53
2019-01-05T02:02:03.534Z,3.27
2019-01-05T02:05:07.197Z,3.37
2019-01-05T02:07:56.944Z,3.30
2019-01-05T02:10:46.956Z,3.57
2019-01-05T02:13:35.431Z,3.40
2019-01-05T02:16:28.172Z,3.60
2019-01-05T02:19:29.838Z,3.67
2019-01-05T02:22:44.009Z,3.33
2019-01-05T02:26:07.227Z,4.23
2019-01-05T02:29:29.500Z,3.77
2019-01-05T02:33:21.682Z,3.37
2019-01-05T02:37:14.977Z,4.10
2019-01-05T02:40:42.043Z,3.23
2019-01-05T02:44:01.616Z,3.67
2019-01-05T02:47:35.372Z,3.27
2019-01-05T02:51:02.537Z,3.17
2019-01-05T02:54:27.615Z,2.93
2019-01-05T02:57:45.988Z,3.70
2019-01-05T03:01:02.623Z,3.43
2019-01-05T03:04:16.543Z,3.83
2019-01-05T03:07:27.394Z,4.20
2019-01-05T03:11:00.284Z,3.87
2019-01-05T03:14:49.244Z,4.57
2019-01-05T03:18:27.515Z,4.70
2019-01-05T03:21:57.367Z,3.43
2019-01-05T03:25:28.046Z,5.10
2019-01-05T03:29:25.329Z,4.57
2019-01-05T03:32:59.411Z,4.43
2019-01-05T03:36:52.890Z,3.80
2019-01-05T03:40:52.358Z,5.47
2019-01-05T03:44:25.692Z,4.93
2019-01-05T03:47:33.189Z,6.63
2019-01-05T03:51:15.166Z,6.60
2019-01-05T03:54:53.219Z,7.83
2019-01-05T03:58:30.642Z,6.27
2019-01-05T04:01:54.292Z,6.53
2019-01-05T04:05:17.594Z,6.50
2019-01-05T04:08:42.671Z,6.10
2019-01-05T04:12:10.154Z,5.50
2019-01-05T04:19:00.694Z,4.47
2019-01-05T04:22:43.427Z,3.90
2019-01-05T04:26:21.677Z,4.27
2019-01-05T04:30:03.705Z,3.93
2019-01-05T04:33:52.579Z,4.73
2019-01-05T04:37:41.681Z,4.80
2019-01-05T04:41:15.751Z,4.37
2019-01-05T04:44:37.707Z,4.30
2019-01-05T04:48:00.456Z,3.90
2019-01-05T04:51:27.875Z,4.30
2019-01-05T04:54:57.480Z,3.63
2019-01-05T04:58:46.012Z,2.77
2019-01-05T05:02:31.790Z,3.17
2019-01-05T05:05:54.741Z,3.37
2019-01-05T05:09:40.221Z,3.27
2019-01-05T05:12:55.842Z,2.87
2019-01-05T05:16:34.526Z,3.27
2019-01-05T05:20:14.537Z,2.57
2019-01-05T05:23:40.149Z,2.60
2019-01-05T05:27:13.158Z,2.37
2019-01-05T05:30:49.523Z,3.00
2019-01-05T05:34:00.397Z,2.30
2019-01-05T05:37:26.104Z,1.83
2019-01-05T05:41:00.327Z,2.40
2019-01-05T05:44:16.769Z,2.33
2019-01-05T05:48:00.134Z,2.27
2019-01-05T05:51:37.696Z,2.30
2019-01-05T05:54:56.555Z,2.33
2019-01-05T05:58:22.526Z,2.40
2019-01-05T06:01:54.720Z,1.80
2019-01-05T06:05:11.172Z,2.70
2019-01-05T06:08:34.939Z,2.30
2019-01-05T06:12:21.268Z,2.20
2019-01-05T06:16:08.821Z,2.80
2019-01-05T06:19:25.289Z,2.30
2019-01-05T06:23:02.497Z,2.80
2019-01-05T06:26:29.406Z,2.07
2019-01-05T06:30:00.230Z,2.33
2019-01-05T06:33:24.179Z,2.10
2019-01-05T06:36:57.229Z,1.80
2019-01-05T06:40:29.715Z,1.60
2019-01-05T06:44:12.354Z,2.37
2019-01-05T06:47:39.056Z,2.13
2019-01-05T06:51:13.941Z,2.17
2019-01-05T06:54:54.638Z,1.93
2019-01-05T06:58:14.640Z,1.53
2019-01-05T07:02:10.190Z,1.70
2019-01-05T07:05:53.720Z,2.00
2019-01-05T07:09:21.602Z,2.27
2019-01-05T07:12:42.804Z,2.53
2019-01-05T07:16:11.639Z,2.97
2019-01-05T07:19:50.896Z,2.20
2019-01-05T07:23:28.423Z,2.50
2019-01-05T07:26:52.931Z,2.27
2019-01-05T07:30:22.735Z,4.10
2019-01-05T07:33:47.113Z,2.50
2019-01-05T07:37:15.359Z,2.27
2019-01-05T07:40:49.617Z,2.60
2019-01-05T07:44:30.021Z,3.00
2019-01-05T07:48:22.315Z,3.30
2019-01-05T07:52:11.279Z,2.50
2019-01-05T07:55:54.355Z,2.60
2019-01-05T07:59:41.487Z,2.93
2019-01-05T08:03:02.845Z,3.40
2019-01-05T08:06:51.787Z,3.60
2019-01-05T08:10:40.304Z,3.90
2019-01-05T08:14:31.154Z,3.37
2019-01-05T08:17:58.180Z,3.13
2019-01-05T08:21:33.903Z,3.20
2019-01-05T08:25:04.527Z,3.30
2019-01-05T08:28:44.658Z,3.90
2019-01-05T08:32:09.514Z,3.33
2019-01-05T08:35:38.747Z,3.60
2019-01-05T08:38:55.635Z,4.70
2019-01-05T08:42:34.875Z,5.17
2019-01-05T08:45:58.292Z,4.67
2019-01-05T08:49:11.042Z,5.13
2019-01-05T08:52:37.243Z,4.57
2019-01-05T08:55:56.142Z,5.60
2019-01-05T08:59:15.332Z,5.10
2019-01-05T09:03:17.483Z,5.57
2019-01-05T09:06:44.786Z,5.10
2019-01-05T09:10:49.775Z,7.90
2019-01-05T09:14:26.131Z,5.80
2019-01-05T09:17:57.206Z,5.73
2019-01-05T09:21:23.034Z,6.23
2019-01-05T09:24:54.401Z,6.10
2019-01-05T09:28:40.010Z,6.53
2019-01-05T09:32:08.944Z,7.23
2019-01-05T09:35:43.288Z,6.47
2019-01-05T09:39:16.159Z,7.23
2019-01-05T09:42:33.386Z,7.20
2019-01-05T09:46:05.378Z,7.20
2019-01-05T09:49:37.474Z,7.30
2019-01-05T09:53:17.155Z,7.63
2019-01-05T09:57:08.082Z,7.90
2019-01-05T10:00:48.450Z,7.30
2019-01-05T10:04:11.982Z,7.47
2019-01-05T10:07:41.106Z,7.57
2019-01-05T10:11:26.742Z,7.37
2019-01-05T10:15:15.849Z,8.50
2019-01-05T10:18:43.429Z,7.57
2019-01-05T10:22:32.844Z,6.53
2019-01-05T10:26:13.351Z,7.53
2019-01-05T10:30:05.176Z,7.73
2019-01-05T10:33:43.952Z,7.30
2019-01-05T10:37:40.327Z,7.63
2019-01-05T10:41:02.815Z,8.27
2019-01-05T10:44:32.854Z,8.13
2019-01-05T10:48:16.804Z,8.40
2019-01-05T10:52:05.062Z,8.27
2019-01-05T10:55:42.612Z,8.63
2019-01-05T10:59:06.820Z,8.73
2019-01-05T11:02:40.645Z,7.40
2019-01-05T11:06:16.270Z,8.30
2019-01-05T11:09:26.021Z,8.07
2019-01-05T11:13:14.672Z,8.40
2019-01-05T11:16:59.575Z,7.93
2019-01-05T11:20:35.754Z,8.43
2019-01-05T11:23:47.608Z,9.20
2019-01-05T11:27:04.998Z,8.60
2019-01-05T11:30:24.954Z,8.30
2019-01-05T11:34:17.399Z,9.47
2019-01-05T11:37:46.665Z,9.23
2019-01-05T11:41:20.264Z,9.77
2019-01-05T11:44:53.778Z,9.93
2019-01-05T11:48:18.064Z,8.33
2019-01-05T11:51:47.310Z,8.07
2019-01-05T11:55:18.258Z,7.43
2019-01-05T11:58:30.848Z,8.95
2019-01-05T12:02:04.129Z,7.63
2019-01-05T12:05:51.073Z,8.93
2019-01-05T12:09:44.892Z,8.07
2019-01-05T12:13:24.520Z,7.67
2019-01-05T12:17:00.235Z,7.43
2019-01-05T12:20:49.956Z,6.63
2019-01-05T12:24:14.031Z,7.60
2019-01-05T12:28:09.133Z,8.80
2019-01-05T12:31:58.868Z,6.37
2019-01-05T12:35:32.292Z,9.03
2019-01-05T12:39:08.860Z,8.47
2019-01-05T12:42:36.419Z,13.07
2019-01-05T12:46:17.034Z,7.43
2019-01-05T12:49:59.698Z,7.20
2019-01-05T12:53:32.516Z,8.50
2019-01-05T12:56:51.017Z,8.87
2019-01-05T13:00:14.483Z,9.17
2019-01-05T13:03:36.752Z,8.93
2019-01-05T13:07:05.844Z,10.00
2019-01-05T13:10:31.978Z,10.00
2019-01-05T13:14:00.318Z,9.90
2019-01-05T13:17:25.528Z,9.30
2019-01-05T13:21:00.745Z,9.17
2019-01-05T13:24:32.002Z,9.60
2019-01-05T13:27:58.628Z,8.83
2019-01-05T13:31:37.257Z,10.23
2019-01-05T13:35:27.811Z,9.57
2019-01-05T13:39:07.759Z,8.73
2019-01-05T13:42:45.054Z,8.70
2019-01-05T13:46:16.439Z,10.90
2019-01-05T13:49:41.070Z,8.90
2019-01-05T13:52:49.055Z,9.53
2019-01-05T13:56:12.273Z,9.80
2019-01-05T13:58:58.966Z,10.17
2019-01-05T14:01:42.925Z,11.50
2019-01-05T14:04:49.516Z,11.50
2019-01-05T14:07:36.152Z,19.23
2019-01-05T14:10:42.953Z,14.30
2019-01-05T14:13:31.746Z,15.87
2019-01-05T14:16:22.926Z,12.57
2019-01-05T14:19:15.062Z,12.47
2019-01-05T14:22:18.315Z,11.70
2019-01-05T14:25:05.799Z,14.27
2019-01-05T14:27:54.151Z,11.77
2019-01-05T14:30:40.889Z,12.03
2019-01-05T14:33:44.661Z,11.13
2019-01-05T14:36:38.834Z,11.03
2019-01-05T14:39:26.269Z,10.30
2019-01-05T14:42:30.034Z,11.80
2019-01-05T14:45:16.803Z,10.40
2019-01-05T14:48:18.049Z,11.23
2019-01-05T14:51:12.421Z,10.50
2019-01-05T14:54:00.756Z,11.77
2019-01-05T14:57:00.918Z,11.97
2019-01-05T14:59:48.350Z,11.80
2019-01-05T15:02:45.577Z,12.43
2019-01-05T15:05:32.638Z,12.00
2019-01-05T15:08:19.877Z,13.30
2019-01-05T15:11:20.593Z,14.77
2019-01-05T15:14:07.746Z,11.90
2019-01-05T15:16:53.702Z,10.20
2019-01-05T15:19:54.269Z,10.83
2019-01-05T15:22:51.906Z,11.57
2019-01-05T15:25:49.168Z,12.23
2019-01-05T15:28:45.401Z,12.77
2019-01-05T15:31:45.805Z,13.20
2019-01-05T15:34:33.060Z,13.00
2019-01-05T15:37:24.552Z,13.47
2019-01-05T15:40:22.119Z,13.17
2019-01-05T15:43:22.570Z,12.40
2019-01-05T15:46:23.062Z,13.03
2019-01-05T15:49:10.097Z,14.30
2019-01-05T15:52:07.295Z,15.43
2019-01-05T15:54:55.631Z,15.47
2019-01-05T15:57:47.007Z,15.17
2019-01-05T16:00:38.339Z,14.80
2019-01-05T16:03:25.113Z,15.20
2019-01-05T16:06:19.633Z,16.70
2019-01-05T16:09:13.814Z,16.43
2019-01-05T16:12:11.325Z,14.43
2019-01-05T16:15:11.775Z,14.83
2019-01-05T16:18:02.917Z,14.40
2019-01-05T16:20:49.891Z,14.93
2019-01-05T16:23:37.912Z,15.20
2019-01-05T16:26:26.211Z,15.33
2019-01-05T16:29:14.715Z,16.97
2019-01-05T16:32:21.357Z,16.77
2019-01-05T16:35:21.662Z,18.10
2019-01-05T16:38:22.477Z,15.87
2019-01-05T16:41:10.830Z,13.53
2019-01-05T16:44:05.342Z,12.80
2019-01-05T16:47:05.804Z,14.53
2019-01-05T16:49:51.986Z,13.67
2019-01-05T16:52:39.321Z,13.17
2019-01-05T16:55:45.588Z,11.40
2019-01-05T16:58:39.989Z,11.97
2019-01-05T17:01:26.580Z,11.30
2019-01-05T17:04:13.355Z,12.17
2019-01-05T17:07:00.141Z,12.00
2019-01-05T17:09:58.723Z,11.83
2019-01-05T17:12:59.797Z,11.50
2019-01-05T17:15:51.232Z,11.80
2019-01-05T17:18:39.705Z,11.60
2019-01-05T17:21:42.938Z,12.50
2019-01-05T17:24:29.962Z,17.93
2019-01-05T17:27:20.763Z,15.10
2019-01-05T17:30:07.749Z,12.50
2019-01-05T17:32:54.625Z,14.23
2019-01-05T17:35:42.076Z,12.87
2019-01-05T17:38:39.779Z,11.60
2019-01-05T17:41:26.292Z,12.97
2019-01-05T17:44:08.143Z,14.40
2019-01-05T17:46:47.399Z,13.50
2019-01-05T17:49:34.892Z,13.60
2019-01-05T17:52:25.950Z,12.90
2019-01-05T17:55:14.304Z,12.77
2019-01-05T17:58:20.845Z,11.43
2019-01-05T18:01:15.197Z,10.70
2019-01-05T18:04:00.866Z,11.67
2019-01-05T18:06:47.893Z,11.07
2019-01-05T18:09:39.329Z,11.63
2019-01-05T18:12:27.834Z,11.07
2019-01-05T18:15:15.405Z,13.33
2019-01-05T18:18:02.614Z,16.70
2019-01-05T18:21:01.408Z,14.27
2019-01-05T18:24:04.946Z,11.30
2019-01-05T18:26:53.324Z,10.27
2019-01-05T18:29:40.403Z,9.90
2019-01-05T18:32:27.348Z,10.43
2019-01-05T18:35:18.732Z,10.33
2019-01-05T18:38:05.425Z,9.33
2019-01-05T18:40:53.778Z,9.57
2019-01-05T18:43:42.139Z,9.60
2019-01-05T18:46:29.193Z,9.67
2019-01-05T18:49:32.703Z,11.93
2019-01-05T18:52:25.207Z,11.83
2019-01-05T18:55:12.498Z,12.97
2019-01-05T18:57:59.459Z,12.80
2019-01-05T19:00:56.789Z,12.90
2019-01-05T19:03:44.224Z,16.43
2019-01-05T19:06:38.313Z,14.20
2019-01-05T19:09:30.197Z,13.30
2019-01-05T19:12:30.825Z,16.97
2019-01-05T19:15:17.680Z,13.00
2019-01-05T19:18:15.136Z,12.50
2019-01-05T19:21:02.988Z,13.23
2019-01-05T19:24:06.994Z,12.57
2019-01-05T19:26:50.053Z,13.97
2019-01-05T19:29:38.572Z,12.67
2019-01-05T19:32:29.786Z,11.40
2019-01-05T19:35:14.284Z,12.37
2019-01-05T19:38:12.343Z,11.47
2019-01-05T19:41:02.461Z,12.00
2019-01-05T19:43:50.712Z,12.60
2019-01-05T19:46:40.171Z,11.60
2019-01-05T19:49:21.973Z,12.37
2019-01-05T19:52:09.227Z,12.27
2019-01-05T19:54:55.905Z,11.20
2019-01-05T19:57:50.462Z,12.33
2019-01-05T20:00:37.410Z,12.07
2019-01-05T20:03:24.254Z,11.80
2019-01-05T20:06:14.637Z,13.33
2019-01-05T20:09:01.475Z,13.47
2019-01-05T20:11:58.957Z,15.50
2019-01-05T20:15:05.180Z,16.77
2019-01-05T20:17:52.296Z,16.00
2019-01-05T20:20:39.064Z,16.27
2019-01-05T20:23:33.335Z,15.87
2019-01-05T20:26:20.444Z,18.70
2019-01-05T20:29:07.460Z,18.03
2019-01-05T20:31:50.966Z,17.70
2019-01-05T20:34:37.929Z,19.33
2019-01-05T20:37:35.430Z,18.57
2019-01-05T20:40:38.968Z,18.50
2019-01-05T20:43:27.598Z,19.63
2019-01-05T20:46:08.383Z,18.73
2019-01-05T20:48:55.391Z,19.23
2019-01-05T20:51:46.496Z,19.50
2019-01-05T20:54:46.733Z,19.13
2019-01-05T20:57:35.090Z,20.70
2019-01-05T21:00:23.764Z,21.67
2019-01-05T21:03:17.639Z,19.60
2019-01-05T21:06:07.395Z,19.37
2019-01-05T21:08:50.514Z,19.97
2019-01-05T21:11:47.805Z,20.33
2019-01-05T21:14:45.499Z,18.33
2019-01-05T21:17:32.224Z,21.77
2019-01-05T21:20:19.243Z,20.70
2019-01-05T21:23:11.199Z,21.07
2019-01-05T21:25:58.019Z,19.83
2019-01-05T21:28:52.540Z,20.13
2019-01-05T21:31:41.153Z,21.00
2019-01-05T21:34:32.965Z,20.90
2019-01-05T21:37:21.497Z,19.80
2019-01-05T21:40:08.397Z,18.40
2019-01-05T21:42:58.844Z,18.00
2019-01-05T21:45:54.693Z,18.83
2019-01-05T21:49:01.698Z,17.67
2019-01-05T21:51:48.554Z,17.20
2019-01-05T21:54:44.860Z,16.57
2019-01-05T21:57:31.990Z,17.77
2019-01-05T22:00:23.581Z,16.13
2019-01-05T22:03:05.279Z,16.73
2019-01-05T22:05:56.479Z,16.97
2019-01-05T22:08:35.123Z,17.70
2019-01-05T22:11:35.897Z,16.20
2019-01-05T22:14:34.746Z,15.60
2019-01-05T22:17:22.194Z,15.53
2019-01-05T22:20:09.214Z,15.47
2019-01-05T22:22:57.732Z,15.27
2019-01-05T22:25:49.543Z,16.10
2019-01-05T22:28:33.474Z,18.17
2019-01-05T22:31:39.828Z,18.07
2019-01-05T22:34:40.400Z,17.07
2019-01-05T22:37:27.370Z,16.20
2019-01-05T22:40:14.386Z,18.17
2019-01-05T22:43:01.501Z,17.83
2019-01-05T22:45:48.457Z,18.77
2019-01-05T22:48:45.806Z,19.00
2019-01-05T22:51:27.672Z,16.57
2019-01-05T22:54:27.729Z,15.90
2019-01-05T22:57:24.857Z,17.60
2019-01-05T23:00:11.730Z,17.47
2019-01-05T23:03:00.035Z,15.43
2019-01-05T23:05:47.083Z,20.93
2019-01-05T23:08:50.577Z,16.90
2019-01-05T23:11:47.731Z,17.10
2019-01-05T23:14:34.434Z,16.70
2019-01-05T23:17:21.332Z,16.20
2019-01-05T23:20:08.282Z,15.77
2019-01-05T23:22:55.236Z,16.77
2019-01-05T23:25:58.800Z,16.13
2019-01-05T23:29:10.832Z,16.57
2019-01-05T23:31:55.621Z,16.20
2019-01-05T23:34:42.789Z,14.70
2019-01-05T23:37:29.521Z,15.90
2019-01-05T23:40:19.619Z,16.37
2019-01-05T23:43:08.075Z,15.47
2019-01-05T23:46:02.770Z,15.13
2019-01-05T23:48:50.013Z,15.47
2019-01-05T23:51:28.039Z,16.43
2019-01-05T23:54:22.189Z,16.80
2019-01-05T23:57:28.756Z,17.20
